Time;durP1;ratioP1;P1;durP2;ratioP2;P2;SDS_P1;SDS_P2;PMS_P1;PMS_P2;Temp;Humidity;BMP_temperature;BMP_pressure;BME280_temperature;BME280_humidity;BME280_pressure;Samples;Min_cycle;Max_cycle;Signal;HPM_P1;HPM_P2
2022/09/20 00:01:15;;;;;;;3.73;1.67;;;;;;;;;;4995023;28;20220;-79
2022/09/20 00:03:42;;;;;;;3.10;1.23;;;;;;;;;;4994762;28;20217;-79
2022/09/20 00:06:09;;;;;;;3.03;1.50;;;;;;;;;;4978929;28;20562;-80
2022/09/20 00:08:35;;;;;;;3.37;1.30;;;;;;;;;;4978549;28;20187;-78
2022/09/20 00:11:02;;;;;;;2.87;1.60;;;;;;;;;;4994601;28;20263;-78
2022/09/20 00:13:29;;;;;;;2.90;1.50;;;;;;;;;;4994557;28;20227;-79
2022/09/20 00:15:55;;;;;;;2.90;1.40;;;;;;;;;;4994401;28;20176;-79
2022/09/20 00:18:21;;;;;;;1.87;1.20;;;;;;;;;;4978741;28;20182;-78
2022/09/20 00:20:48;;;;;;;2.23;1.57;;;;;;;;;;4994257;28;20294;-78
2022/09/20 00:23:14;;;;;;;2.90;1.43;;;;;;;;;;4994511;28;20196;-78
2022/09/20 00:25:40;;;;;;;2.07;1.50;;;;;;;;;;4978276;28;20176;-78
2022/09/20 00:28:06;;;;;;;3.53;1.40;;;;;;;;;;4978420;28;20662;-78
2022/09/20 00:30:33;;;;;;;2.97;1.40;;;;;;;;;;4977943;28;20642;-78
2022/09/20 00:32:59;;;;;;;4.53;1.40;;;;;;;;;;4995545;28;20179;-78
2022/09/20 00:35:25;;;;;;;2.67;1.40;;;;;;;;;;4978189;28;20195;-80
2022/09/20 00:37:51;;;;;;;1.90;1.40;;;;;;;;;;4978078;28;20666;-79
2022/09/20 00:40:21;;;;;;;1.93;1.40;;;;;;;;;;4994101;28;20231;-78
2022/09/20 00:42:47;;;;;;;1.80;1.30;;;;;;;;;;4994283;28;20176;-78
2022/09/20 00:45:21;;;;;;;1.93;1.50;;;;;;;;;;4994335;28;20179;-79
2022/09/20 00:47:59;;;;;;;2.97;1.50;;;;;;;;;;4994091;28;20176;-79
2022/09/20 00:50:37;;;;;;;2.33;1.40;;;;;;;;;;4978025;28;20182;-78
2022/09/20 00:53:06;;;;;;;3.27;1.40;;;;;;;;;;4995119;28;20219;-78
2022/09/20 00:55:33;;;;;;;1.87;1.23;;;;;;;;;;4993855;28;20302;-78
2022/09/20 00:57:59;;;;;;;1.87;1.33;;;;;;;;;;4977744;28;20182;-81
2022/09/20 01:00:25;;;;;;;3.50;1.40;;;;;;;;;;4993424;28;20250;-79
2022/09/20 01:02:53;;;;;;;1.90;1.27;;;;;;;;;;4993570;28;20258;-79
2022/09/20 01:05:19;;;;;;;4.43;1.40;;;;;;;;;;4977875;28;20216;-78
2022/09/20 01:07:47;;;;;;;1.80;1.20;;;;;;;;;;4993364;28;20187;-79
2022/09/20 01:10:13;;;;;;;2.17;1.50;;;;;;;;;;4993525;28;20184;-77
2022/09/20 01:12:39;;;;;;;2.73;1.33;;;;;;;;;;4993732;28;20194;-78
2022/09/20 01:15:07;;;;;;;2.50;1.13;;;;;;;;;;4977084;28;20218;-80
2022/09/20 01:17:35;;;;;;;2.37;1.30;;;;;;;;;;4993855;28;20191;-78
2022/09/20 01:20:08;;;;;;;2.97;1.50;;;;;;;;;;4993287;28;20238;-79
2022/09/20 01:22:48;;;;;;;2.13;1.20;;;;;;;;;;4993407;28;20187;-79
2022/09/20 01:25:24;;;;;;;1.30;1.10;;;;;;;;;;4993374;28;20572;-78
2022/09/20 01:27:51;;;;;;;2.87;1.30;;;;;;;;;;4993350;28;20205;-79
2022/09/20 01:30:21;;;;;;;3.40;1.27;;;;;;;;;;4992926;28;20187;-78
2022/09/20 01:32:56;;;;;;;1.77;1.30;;;;;;;;;;4993207;28;20195;-78
2022/09/20 01:35:23;;;;;;;1.40;1.07;;;;;;;;;;4993336;28;20559;-78
2022/09/20 01:37:55;;;;;;;2.93;1.10;;;;;;;;;;4993280;28;20184;-78
2022/09/20 01:40:45;;;;;;;2.30;1.40;;;;;;;;;;4992724;28;20202;-78
2022/09/20 01:43:23;;;;;;;1.20;1.10;;;;;;;;;;4983349;28;20207;-78
2022/09/20 01:45:49;;;;;;;3.97;1.60;;;;;;;;;;4993092;28;20184;-78
2022/09/20 01:48:26;;;;;;;3.60;1.50;;;;;;;;;;4976823;28;20207;-78
2022/09/20 01:51:10;;;;;;;2.13;1.57;;;;;;;;;;4992632;28;20271;-78
2022/09/20 01:53:36;;;;;;;2.63;1.60;;;;;;;;;;4992701;28;20293;-78
2022/09/20 01:56:09;;;;;;;1.80;1.40;;;;;;;;;;4992983;28;20183;-78
2022/09/20 01:58:41;;;;;;;4.90;1.37;;;;;;;;;;4992677;28;20176;-78
2022/09/20 02:01:25;;;;;;;1.30;1.13;;;;;;;;;;4992501;28;20180;-79
2022/09/20 02:04:17;;;;;;;2.07;1.20;;;;;;;;;;4992751;28;20635;-78
2022/09/20 02:06:55;;;;;;;1.83;1.30;;;;;;;;;;4985015;28;20229;-78
2022/09/20 02:09:22;;;;;;;2.63;1.50;;;;;;;;;;4992380;28;20241;-78
2022/09/20 02:12:07;;;;;;;2.27;1.50;;;;;;;;;;4992601;28;20567;-78
2022/09/20 02:14:51;;;;;;;1.87;1.37;;;;;;;;;;4992146;28;20215;-78
2022/09/20 02:17:27;;;;;;;2.47;1.53;;;;;;;;;;4992400;28;20184;-78
2022/09/20 02:20:00;;;;;;;1.70;1.20;;;;;;;;;;4991265;28;20222;-78
2022/09/20 02:22:36;;;;;;;2.47;1.50;;;;;;;;;;4992346;28;20207;-78
2022/09/20 02:25:13;;;;;;;1.67;1.30;;;;;;;;;;4992290;28;20194;-78
2022/09/20 02:27:43;;;;;;;2.70;1.30;;;;;;;;;;4992272;28;20189;-79
2022/09/20 02:30:14;;;;;;;3.60;1.50;;;;;;;;;;4992070;28;20229;-78
2022/09/20 02:32:55;;;;;;;3.47;1.47;;;;;;;;;;4993403;28;20171;-78
2022/09/20 02:35:21;;;;;;;2.13;1.40;;;;;;;;;;4992065;28;20617;-78
2022/09/20 02:37:47;;;;;;;2.27;1.47;;;;;;;;;;4992034;28;20215;-79
2022/09/20 02:40:26;;;;;;;2.53;1.30;;;;;;;;;;4991662;28;20245;-79
2022/09/20 02:43:02;;;;;;;3.43;1.47;;;;;;;;;;4991871;28;20182;-78
2022/09/20 02:45:34;;;;;;;2.33;1.37;;;;;;;;;;4992129;28;20263;-78
2022/09/20 02:48:03;;;;;;;2.33;1.60;;;;;;;;;;4992020;28;20182;-78
2022/09/20 02:50:32;;;;;;;2.80;1.40;;;;;;;;;;4975677;28;20274;-80
2022/09/20 02:53:16;;;;;;;3.17;1.30;;;;;;;;;;4991775;28;20296;-78
2022/09/20 02:56:01;;;;;;;2.27;1.40;;;;;;;;;;4992005;28;20187;-78
2022/09/20 02:58:27;;;;;;;2.73;1.43;;;;;;;;;;4991789;28;20667;-78
2022/09/20 03:01:04;;;;;;;1.83;1.43;;;;;;;;;;4991606;28;20211;-78
2022/09/20 03:03:49;;;;;;;3.10;1.53;;;;;;;;;;4991713;28;20210;-78
2022/09/20 03:06:21;;;;;;;3.33;1.50;;;;;;;;;;4991727;28;20175;-78
2022/09/20 03:08:59;;;;;;;4.63;1.33;;;;;;;;;;4991434;28;20178;-78
2022/09/20 03:11:32;;;;;;;4.17;1.70;;;;;;;;;;4992884;28;20167;-79
2022/09/20 03:14:01;;;;;;;4.90;1.90;;;;;;;;;;4991390;28;20709;-80
2022/09/20 03:16:45;;;;;;;3.63;1.50;;;;;;;;;;4991308;28;20547;-78
2022/09/20 03:19:32;;;;;;;4.20;2.10;;;;;;;;;;4991298;28;20203;-78
2022/09/20 03:22:13;;;;;;;2.73;1.57;;;;;;;;;;4991683;28;20176;-80
2022/09/20 03:24:39;;;;;;;1.70;1.40;;;;;;;;;;4991632;28;20198;-78
2022/09/20 03:27:32;;;;;;;2.40;1.67;;;;;;;;;;4991605;28;20175;-78
2022/09/20 03:30:03;;;;;;;2.50;1.70;;;;;;;;;;4990113;28;20246;-78
2022/09/20 03:32:43;;;;;;;3.33;1.80;;;;;;;;;;4994091;28;20243;-78
2022/09/20 03:35:35;;;;;;;4.80;1.80;;;;;;;;;;4995351;28;20207;-78
2022/09/20 03:38:20;;;;;;;3.50;1.80;;;;;;;;;;4987449;28;20230;-78
2022/09/20 03:40:49;;;;;;;5.07;1.90;;;;;;;;;;4995096;28;20703;-78
2022/09/20 03:43:18;;;;;;;1.73;1.53;;;;;;;;;;4995089;28;20215;-78
2022/09/20 03:45:44;;;;;;;2.77;1.70;;;;;;;;;;4995497;28;20187;-78
2022/09/20 03:48:28;;;;;;;3.83;1.63;;;;;;;;;;4996423;28;20179;-78
2022/09/20 03:51:09;;;;;;;3.57;1.93;;;;;;;;;;4994953;28;20552;-78
2022/09/20 03:53:45;;;;;;;3.80;1.93;;;;;;;;;;4995039;28;20210;-78
2022/09/20 03:56:29;;;;;;;2.93;1.70;;;;;;;;;;4994963;28;20179;-79
2022/09/20 03:59:07;;;;;;;4.20;1.53;;;;;;;;;;4994728;28;20242;-79
2022/09/20 04:01:39;;;;;;;3.80;1.70;;;;;;;;;;4995020;28;20668;-78
2022/09/20 04:04:22;;;;;;;2.07;1.50;;;;;;;;;;4994725;28;20207;-78
2022/09/20 04:06:58;;;;;;;2.80;1.60;;;;;;;;;;4995049;28;20179;-78
2022/09/20 04:09:33;;;;;;;4.50;1.80;;;;;;;;;;4994727;28;20182;-78
2022/09/20 04:12:07;;;;;;;1.87;1.50;;;;;;;;;;4994682;28;20201;-78
2022/09/20 04:14:52;;;;;;;1.87;1.13;;;;;;;;;;4994572;28;20225;-78
2022/09/20 04:17:24;;;;;;;2.30;1.50;;;;;;;;;;4994915;28;20679;-78
2022/09/20 04:20:01;;;;;;;4.30;1.50;;;;;;;;;;4994403;28;20575;-78
2022/09/20 04:22:28;;;;;;;2.97;1.60;;;;;;;;;;4995785;28;20577;-78
2022/09/20 04:25:15;;;;;;;2.83;1.80;;;;;;;;;;4978140;28;20213;-78
2022/09/20 04:27:44;;;;;;;3.10;1.63;;;;;;;;;;4994649;28;20225;-78
2022/09/20 04:30:21;;;;;;;5.23;1.97;;;;;;;;;;4994269;28;20270;-78
2022/09/20 04:32:51;;;;;;;4.40;1.70;;;;;;;;;;4994356;28;20238;-78
2022/09/20 04:38:17;;;;;;;2.50;1.57;;;;;;;;;;4995434;28;20206;-78
2022/09/20 04:40:56;;;;;;;4.27;1.60;;;;;;;;;;4994055;28;20212;-79
2022/09/20 04:43:55;;;;;;;2.27;1.60;;;;;;;;;;4993285;28;20198;-78
2022/09/20 04:46:27;;;;;;;3.17;1.70;;;;;;;;;;4982954;28;20245;-78
2022/09/20 04:49:06;;;;;;;5.50;1.80;;;;;;;;;;4993976;28;20523;-78
2022/09/20 04:51:35;;;;;;;4.03;1.90;;;;;;;;;;4994106;28;20175;-78
2022/09/20 04:54:20;;;;;;;3.43;2.00;;;;;;;;;;4993820;28;20195;-78
2022/09/20 04:56:50;;;;;;;4.37;1.80;;;;;;;;;;4993922;28;20218;-78
2022/09/20 04:59:22;;;;;;;4.27;1.90;;;;;;;;;;4993637;28;20293;-78
2022/09/20 05:01:53;;;;;;;3.73;1.90;;;;;;;;;;4993904;28;20181;-78
2022/09/20 05:04:31;;;;;;;4.13;2.00;;;;;;;;;;4993696;28;20555;-78
2022/09/20 05:06:57;;;;;;;3.50;2.00;;;;;;;;;;4993756;28;20179;-78
2022/09/20 05:09:44;;;;;;;3.17;1.73;;;;;;;;;;4993715;28;20562;-79
2022/09/20 05:12:27;;;;;;;5.67;2.20;;;;;;;;;;4993838;28;20179;-79
2022/09/20 05:15:08;;;;;;;2.77;1.60;;;;;;;;;;5014265;22;20231;-79
2022/09/20 05:17:34;;;;;;;2.87;1.63;;;;;;;;;;4974723;28;20175;-79
2022/09/20 05:20:22;;;;;;;3.30;1.93;;;;;;;;;;4974138;28;20223;-79
2022/09/20 05:23:00;;;;;;;4.97;1.90;;;;;;;;;;4974652;28;20551;-79
2022/09/20 05:25:33;;;;;;;4.50;2.20;;;;;;;;;;4954851;28;20225;-79
2022/09/20 05:28:05;;;;;;;6.03;1.97;;;;;;;;;;4955207;28;20184;-79
2022/09/20 05:30:36;;;;;;;5.27;2.10;;;;;;;;;;4954823;28;20253;-79
2022/09/20 05:33:32;;;;;;;5.60;2.00;;;;;;;;;;4955096;28;20274;-79
2022/09/20 05:36:20;;;;;;;4.77;2.00;;;;;;;;;;4954081;28;20222;-79
2022/09/20 05:38:50;;;;;;;4.00;2.20;;;;;;;;;;4954549;28;20177;-80
2022/09/20 05:41:25;;;;;;;5.77;2.10;;;;;;;;;;4954702;28;20215;-80
2022/09/20 05:43:51;;;;;;;5.50;2.30;;;;;;;;;;4954529;28;20282;-80
2022/09/20 05:46:28;;;;;;;4.70;2.10;;;;;;;;;;4955914;28;20177;-79
2022/09/20 05:48:55;;;;;;;6.73;2.30;;;;;;;;;;4954652;28;20706;-79
2022/09/20 05:51:31;;;;;;;5.27;2.70;;;;;;;;;;4954798;28;20232;-79
2022/09/20 05:53:57;;;;;;;6.13;2.40;;;;;;;;;;4954351;28;20685;-80
2022/09/20 05:56:32;;;;;;;5.57;2.57;;;;;;;;;;4954645;28;20181;-80
2022/09/20 05:59:04;;;;;;;3.33;2.20;;;;;;;;;;4954437;28;20230;-79
2022/09/20 06:01:33;;;;;;;5.27;2.23;;;;;;;;;;4954422;28;20662;-79
2022/09/20 06:04:16;;;;;;;6.93;3.00;;;;;;;;;;4955672;28;20203;-79
2022/09/20 06:06:42;;;;;;;3.33;2.40;;;;;;;;;;4954133;28;20176;-79
2022/09/20 06:09:08;;;;;;;6.63;2.57;;;;;;;;;;4954145;28;20220;-79
2022/09/20 06:11:53;;;;;;;4.13;2.53;;;;;;;;;;4954313;28;20648;-79
2022/09/20 06:14:26;;;;;;;7.10;2.87;;;;;;;;;;4953986;28;20778;-79
2022/09/20 06:16:52;;;;;;;5.80;2.40;;;;;;;;;;4953827;28;20232;-79
2022/09/20 06:19:25;;;;;;;5.60;2.10;;;;;;;;;;4955045;28;20209;-79
2022/09/20 06:21:53;;;;;;;3.97;2.50;;;;;;;;;;4953955;28;20186;-79
2022/09/20 06:24:42;;;;;;;6.70;2.40;;;;;;;;;;4938225;28;20239;-79
2022/09/20 06:27:12;;;;;;;5.80;2.33;;;;;;;;;;4955658;28;20179;-80
2022/09/20 06:29:42;;;;;;;4.13;2.03;;;;;;;;;;4955398;28;20183;-79
2022/09/20 06:32:08;;;;;;;6.23;2.77;;;;;;;;;;4954256;28;20190;-79
2022/09/20 06:34:34;;;;;;;8.63;2.63;;;;;;;;;;4938681;28;20242;-80
2022/09/20 06:42:47;;;;;;;3.80;2.33;;;;;;;;;;4955415;29;20549;-80
2022/09/20 06:45:13;;;;;;;4.60;2.60;;;;;;;;;;4937574;28;20208;-80
2022/09/20 06:47:39;;;;;;;5.73;2.47;;;;;;;;;;4937677;29;20188;-81
2022/09/20 06:50:06;;;;;;;8.03;2.87;;;;;;;;;;4937877;29;20202;-80
2022/09/20 06:52:32;;;;;;;6.00;2.60;;;;;;;;;;4938860;29;20264;-79
2022/09/20 06:54:58;;;;;;;7.27;2.50;;;;;;;;;;4954927;28;20254;-79
2022/09/20 06:57:30;;;;;;;5.70;2.90;;;;;;;;;;4939236;29;20195;-79
2022/09/20 06:59:56;;;;;;;8.93;2.80;;;;;;;;;;4954704;28;20686;-79
2022/09/20 07:02:22;;;;;;;5.53;2.80;;;;;;;;;;4938815;28;20173;-79
2022/09/20 07:04:48;;;;;;;8.17;2.90;;;;;;;;;;4938790;29;20578;-79
2022/09/20 07:07:16;;;;;;;7.00;2.70;;;;;;;;;;4938217;28;20181;-79
2022/09/20 07:09:43;;;;;;;7.57;3.07;;;;;;;;;;4954653;28;20184;-79
2022/09/20 07:12:10;;;;;;;7.97;2.63;;;;;;;;;;4939124;29;20191;-79
2022/09/20 07:14:36;;;;;;;7.53;2.60;;;;;;;;;;4938865;29;20277;-79
2022/09/20 07:17:03;;;;;;;7.00;2.77;;;;;;;;;;4938449;28;20682;-79
2022/09/20 07:19:29;;;;;;;5.40;2.60;;;;;;;;;;4954370;28;20675;-79
2022/09/20 07:21:55;;;;;;;6.27;2.50;;;;;;;;;;4938923;28;20188;-79
2022/09/20 07:24:21;;;;;;;4.03;2.57;;;;;;;;;;4954725;28;20192;-79
2022/09/20 07:26:54;;;;;;;5.67;2.50;;;;;;;;;;4938677;29;20190;-79
2022/09/20 07:29:20;;;;;;;5.70;2.80;;;;;;;;;;4953745;28;20651;-79
2022/09/20 07:31:46;;;;;;;6.63;2.77;;;;;;;;;;4954532;28;20240;-79
2022/09/20 07:34:12;;;;;;;5.97;2.30;;;;;;;;;;4938092;29;20300;-79
2022/09/20 07:36:38;;;;;;;6.17;2.20;;;;;;;;;;4937944;28;20215;-79
2022/09/20 07:39:04;;;;;;;4.97;2.60;;;;;;;;;;4937512;28;20199;-79
2022/09/20 07:41:31;;;;;;;4.40;2.20;;;;;;;;;;4937743;28;20280;-79
2022/09/20 07:44:19;;;;;;;7.13;2.33;;;;;;;;;;4937458;29;20291;-77
2022/09/20 07:46:44;;;;;;;7.03;2.40;;;;;;;;;;4952728;29;20202;-77
2022/09/20 07:49:11;;;;;;;4.87;2.70;;;;;;;;;;4937128;28;20674;-79
2022/09/20 07:51:37;;;;;;;4.80;2.40;;;;;;;;;;4953160;28;20195;-79
2022/09/20 07:54:03;;;;;;;8.47;2.47;;;;;;;;;;4937115;28;20213;-79
2022/09/20 07:56:29;;;;;;;7.00;2.77;;;;;;;;;;4937201;28;20193;-79
2022/09/20 07:58:55;;;;;;;5.57;2.50;;;;;;;;;;4937189;29;20280;-79
2022/09/20 08:01:21;;;;;;;7.40;2.60;;;;;;;;;;4937077;29;20212;-79
2022/09/20 08:03:47;;;;;;;4.63;2.93;;;;;;;;;;4953046;28;20208;-80
2022/09/20 08:06:15;;;;;;;5.73;2.73;;;;;;;;;;4937315;29;20220;-80
2022/09/20 08:08:41;;;;;;;7.80;2.73;;;;;;;;;;4937270;28;20267;-80
2022/09/20 08:11:12;;;;;;;10.13;2.63;;;;;;;;;;4936986;28;20189;-79
2022/09/20 08:13:39;;;;;;;4.67;2.50;;;;;;;;;;4937059;29;20227;-79
2022/09/20 08:16:06;;;;;;;7.83;2.70;;;;;;;;;;4936795;29;20196;-79
2022/09/20 08:18:33;;;;;;;7.53;2.50;;;;;;;;;;4953941;28;20656;-79
2022/09/20 08:21:06;;;;;;;5.13;2.37;;;;;;;;;;4956143;28;20212;-79
2022/09/20 08:23:35;;;;;;;8.77;3.00;;;;;;;;;;4939822;28;20228;-79
2022/09/20 08:26:02;;;;;;;4.37;2.40;;;;;;;;;;4956507;28;20280;-79
2022/09/20 08:28:29;;;;;;;5.27;2.60;;;;;;;;;;4957198;28;20555;-79
2022/09/20 08:31:02;;;;;;;5.03;2.40;;;;;;;;;;4941415;28;20276;-79
2022/09/20 08:33:28;;;;;;;7.50;2.40;;;;;;;;;;4941342;29;20578;-79
2022/09/20 08:35:54;;;;;;;4.30;2.50;;;;;;;;;;4958012;28;20247;-79
2022/09/20 08:38:25;;;;;;;6.87;2.80;;;;;;;;;;4935061;28;20223;-79
2022/09/20 08:40:52;;;;;;;6.43;2.43;;;;;;;;;;4983191;28;20208;-80
2022/09/20 08:43:18;;;;;;;8.00;2.20;;;;;;;;;;4955449;28;20183;-80
2022/09/20 08:45:44;;;;;;;4.93;2.10;;;;;;;;;;4942748;28;20189;-80
2022/09/20 08:48:14;;;;;;;5.47;2.33;;;;;;;;;;4956746;28;20184;-80
2022/09/20 08:50:40;;;;;;;4.00;2.10;;;;;;;;;;4956553;28;20189;-79
2022/09/20 08:53:08;;;;;;;6.00;2.13;;;;;;;;;;4956322;28;20174;-79
2022/09/20 08:55:38;;;;;;;5.60;2.10;;;;;;;;;;4956451;28;20530;-79
2022/09/20 08:58:04;;;;;;;6.57;2.70;;;;;;;;;;4956450;28;20183;-79
2022/09/20 09:00:32;;;;;;;7.77;3.60;;;;;;;;;;4955934;28;20215;-79
2022/09/20 09:02:59;;;;;;;7.20;3.43;;;;;;;;;;4955966;28;20197;-79
2022/09/20 09:05:33;;;;;;;5.13;2.80;;;;;;;;;;4956279;28;20181;-79
2022/09/20 09:08:02;;;;;;;5.77;2.87;;;;;;;;;;4952059;28;20181;-79
2022/09/20 09:10:30;;;;;;;7.20;2.50;;;;;;;;;;4943795;29;20204;-79
2022/09/20 09:12:57;;;;;;;9.63;2.70;;;;;;;;;;4952809;28;20200;-79
2022/09/20 09:15:35;;;;;;;13.33;7.43;;;;;;;;;;4952470;28;20754;-79
2022/09/20 09:18:01;;;;;;;7.20;2.83;;;;;;;;;;4952786;28;20594;-79
2022/09/20 09:20:27;;;;;;;5.77;2.47;;;;;;;;;;4952552;28;20753;-79
2022/09/20 09:23:05;;;;;;;6.07;2.30;;;;;;;;;;4971954;28;20192;-79
2022/09/20 09:25:35;;;;;;;6.20;2.30;;;;;;;;;;4956150;28;20181;-79
2022/09/20 09:28:04;;;;;;;4.87;1.77;;;;;;;;;;4956326;28;20181;-79
2022/09/20 09:30:30;;;;;;;4.33;1.90;;;;;;;;;;4956701;28;20173;-79
2022/09/20 09:33:15;;;;;;;7.00;5.70;;;;;;;;;;4956201;28;20227;-80
2022/09/20 09:35:41;;;;;;;5.73;2.50;;;;;;;;;;4955339;28;20180;-80
2022/09/20 09:38:15;;;;;;;5.00;2.17;;;;;;;;;;4954258;28;20185;-80
2022/09/20 09:40:48;;;;;;;5.60;2.13;;;;;;;;;;4955214;28;20216;-80
2022/09/20 09:43:22;;;;;;;3.83;1.90;;;;;;;;;;4955492;28;20181;-80
2022/09/20 09:45:48;;;;;;;5.63;2.10;;;;;;;;;;4955665;28;20224;-80
2022/09/20 09:48:23;;;;;;;5.00;2.13;;;;;;;;;;4955645;28;20655;-80
2022/09/20 09:50:50;;;;;;;5.83;2.43;;;;;;;;;;4955189;28;20573;-80
2022/09/20 09:53:20;;;;;;;5.00;2.10;;;;;;;;;;4955415;28;20243;-80
2022/09/20 09:55:54;;;;;;;7.83;4.23;;;;;;;;;;4955260;28;20192;-80
2022/09/20 09:58:27;;;;;;;5.80;2.37;;;;;;;;;;4955422;28;20185;-80
2022/09/20 10:00:53;;;;;;;3.87;2.10;;;;;;;;;;4955030;28;20245;-80
2022/09/20 10:03:26;;;;;;;5.10;2.10;;;;;;;;;;4955121;28;20188;-80
2022/09/20 10:06:11;;;;;;;4.93;2.07;;;;;;;;;;4955427;28;20173;-80
2022/09/20 10:09:10;;;;;;;6.90;4.20;;;;;;;;;;4954918;28;20178;-80
2022/09/20 10:11:57;;;;;;;5.97;2.73;;;;;;;;;;4954259;29;20242;-80
2022/09/20 10:14:29;;;;;;;3.70;1.97;;;;;;;;;;4954331;28;20219;-78
2022/09/20 10:20:09;;;;;;;5.40;2.33;;;;;;;;;;4946384;29;20244;-79
2022/09/20 10:23:00;;;;;;;3.13;2.20;;;;;;;;;;4964797;28;20180;-79
2022/09/20 10:25:30;;;;;;;4.13;1.93;;;;;;;;;;4953610;29;20220;-79
2022/09/20 10:27:56;;;;;;;5.60;2.07;;;;;;;;;;4953728;28;20181;-77
2022/09/20 10:30:46;;;;;;;6.40;3.80;;;;;;;;;;4953510;28;20264;-78
2022/09/20 10:33:23;;;;;;;5.07;2.00;;;;;;;;;;4956556;28;20247;-79
2022/09/20 10:36:09;;;;;;;4.03;1.93;;;;;;;;;;4952938;28;20810;-79
2022/09/20 10:39:04;;;;;;;6.70;3.13;;;;;;;;;;4962846;28;20183;-77
2022/09/20 10:44:24;;;;;;;5.77;3.40;;;;;;;;;;4959390;28;20220;-78
2022/09/20 10:47:12;;;;;;;6.43;2.27;;;;;;;;;;4954032;28;20650;-78
2022/09/20 10:49:43;;;;;;;4.67;2.00;;;;;;;;;;4953775;29;20177;-79
2022/09/20 10:52:18;;;;;;;3.87;1.43;;;;;;;;;;4938120;29;20227;-78
2022/09/20 10:54:44;;;;;;;5.77;2.00;;;;;;;;;;4954114;28;20220;-79
2022/09/20 10:57:24;;;;;;;4.53;1.90;;;;;;;;;;4954098;28;20165;-79
2022/09/20 10:59:57;;;;;;;6.10;1.73;;;;;;;;;;4956131;28;20199;-79
2022/09/20 11:02:42;;;;;;;4.23;1.70;;;;;;;;;;4973391;28;20312;-79
2022/09/20 11:05:13;;;;;;;4.57;1.60;;;;;;;;;;4973097;28;20196;-79
2022/09/20 11:07:48;;;;;;;3.57;1.70;;;;;;;;;;4972929;28;20231;-79
2022/09/20 11:10:19;;;;;;;4.90;2.60;;;;;;;;;;4972812;28;20191;-79
2022/09/20 11:13:07;;;;;;;5.07;1.90;;;;;;;;;;4973264;28;20176;-79
2022/09/20 11:15:36;;;;;;;5.23;1.57;;;;;;;;;;4997567;23;20317;-79
2022/09/20 11:18:02;;;;;;;4.37;1.77;;;;;;;;;;4976288;28;20194;-80
2022/09/20 11:20:37;;;;;;;5.93;2.20;;;;;;;;;;4992133;28;20693;-79
2022/09/20 11:23:10;;;;;;;4.80;1.77;;;;;;;;;;4993456;28;20625;-80
2022/09/20 11:25:39;;;;;;;3.03;1.67;;;;;;;;;;4991759;28;20705;-79
2022/09/20 11:28:24;;;;;;;3.17;1.50;;;;;;;;;;4972395;28;20230;-79
2022/09/20 11:31:01;;;;;;;6.10;1.90;;;;;;;;;;4988806;28;20672;-79
2022/09/20 11:33:41;;;;;;;4.27;1.70;;;;;;;;;;4989700;28;20184;-79
2022/09/20 11:36:10;;;;;;;5.87;1.77;;;;;;;;;;4972539;28;20176;-79
2022/09/20 11:38:42;;;;;;;3.10;1.20;;;;;;;;;;4972763;28;20188;-79
2022/09/20 11:41:08;;;;;;;1.87;1.10;;;;;;;;;;4972477;28;20216;-79
2022/09/20 11:43:39;;;;;;;2.47;1.10;;;;;;;;;;4973704;28;20542;-79
2022/09/20 11:46:06;;;;;;;1.63;1.00;;;;;;;;;;4956851;28;20180;-79
2022/09/20 11:48:56;;;;;;;1.83;1.07;;;;;;;;;;4972401;28;20259;-79
2022/09/20 11:51:41;;;;;;;2.07;1.20;;;;;;;;;;4967280;28;20199;-79
2022/09/20 11:54:22;;;;;;;1.90;1.40;;;;;;;;;;4975617;28;20210;-79
2022/09/20 11:56:55;;;;;;;3.50;1.47;;;;;;;;;;4979333;28;20275;-79
2022/09/20 11:59:29;;;;;;;2.10;1.20;;;;;;;;;;4995505;28;20203;-79
2022/09/20 12:01:59;;;;;;;1.23;0.97;;;;;;;;;;4975919;28;20179;-79
2022/09/20 12:04:29;;;;;;;1.77;0.90;;;;;;;;;;4976171;28;20200;-79
2022/09/20 12:06:57;;;;;;;1.53;0.83;;;;;;;;;;4976071;28;20283;-79
2022/09/20 12:09:25;;;;;;;2.83;1.00;;;;;;;;;;4975658;28;20195;-79
2022/09/20 12:11:51;;;;;;;2.37;0.80;;;;;;;;;;4976364;28;20206;-79
2022/09/20 12:14:19;;;;;;;2.20;1.40;;;;;;;;;;4976036;28;20220;-79
2022/09/20 12:16:46;;;;;;;1.87;0.70;;;;;;;;;;4976086;28;20184;-79
2022/09/20 12:19:32;;;;;;;2.33;0.70;;;;;;;;;;4975860;28;20192;-79
2022/09/20 12:21:58;;;;;;;4.30;3.10;;;;;;;;;;4975170;28;20185;-79
2022/09/20 12:24:28;;;;;;;1.87;0.80;;;;;;;;;;4976078;28;20624;-79
2022/09/20 12:26:58;;;;;;;1.63;1.30;;;;;;;;;;4975379;28;20271;-79
2022/09/20 12:29:30;;;;;;;0.60;0.60;;;;;;;;;;4975607;28;20184;-79
2022/09/20 12:32:16;;;;;;;3.37;1.40;;;;;;;;;;4976811;28;20180;-79
2022/09/20 12:34:42;;;;;;;1.33;0.83;;;;;;;;;;4975339;28;20202;-79
2022/09/20 12:37:09;;;;;;;0.97;0.73;;;;;;;;;;4975705;28;20176;-79
2022/09/20 12:39:36;;;;;;;2.87;0.83;;;;;;;;;;4975419;28;20208;-79
2022/09/20 12:42:11;;;;;;;1.20;0.80;;;;;;;;;;4975697;28;20180;-79
2022/09/20 12:44:39;;;;;;;3.33;1.00;;;;;;;;;;4975491;28;20211;-79
2022/09/20 12:47:07;;;;;;;1.77;0.90;;;;;;;;;;4975388;28;20181;-79
2022/09/20 12:55:11;;;;;;;3.20;0.90;;;;;;;;;;4989392;28;20231;-79
2022/09/20 12:57:38;;;;;;;1.83;0.97;;;;;;;;;;4975430;28;20184;-79
2022/09/20 13:00:05;;;;;;;2.20;1.00;;;;;;;;;;4976028;28;20200;-79
2022/09/20 13:02:43;;;;;;;2.07;1.00;;;;;;;;;;4975238;28;20172;-79
2022/09/20 13:05:30;;;;;;;1.20;0.90;;;;;;;;;;4974725;28;20200;-79
2022/09/20 13:08:00;;;;;;;1.73;0.93;;;;;;;;;;4975051;28;20654;-79
2022/09/20 13:10:29;;;;;;;1.37;0.83;;;;;;;;;;4975314;28;20256;-79
2022/09/20 13:12:58;;;;;;;2.03;1.17;;;;;;;;;;4974916;28;20235;-79
2022/09/20 13:15:24;;;;;;;2.07;0.90;;;;;;;;;;4975941;28;20686;-79
2022/09/20 13:17:52;;;;;;;1.93;0.80;;;;;;;;;;4975114;28;20268;-79
2022/09/20 13:20:29;;;;;;;2.97;0.93;;;;;;;;;;4974547;28;20208;-79
2022/09/20 13:22:55;;;;;;;2.20;1.00;;;;;;;;;;4976104;28;20176;-79
2022/09/20 13:25:22;;;;;;;3.03;1.03;;;;;;;;;;4974901;28;20547;-79
2022/09/20 13:27:51;;;;;;;1.67;1.13;;;;;;;;;;4974603;28;20187;-79
2022/09/20 13:30:23;;;;;;;1.87;1.10;;;;;;;;;;4974562;28;20184;-79
2022/09/20 13:32:50;;;;;;;2.70;1.03;;;;;;;;;;4974455;28;20219;-79
2022/09/20 13:35:17;;;;;;;3.03;0.80;;;;;;;;;;4974313;28;20204;-79
2022/09/20 13:37:52;;;;;;;2.70;0.90;;;;;;;;;;4974582;28;20235;-79
2022/09/20 13:40:19;;;;;;;1.60;0.83;;;;;;;;;;4974187;28;20219;-79
2022/09/20 13:42:46;;;;;;;2.40;1.10;;;;;;;;;;4974315;28;20189;-79
2022/09/20 13:45:13;;;;;;;2.90;1.20;;;;;;;;;;4973988;28;20200;-79
2022/09/20 13:47:42;;;;;;;3.13;1.57;;;;;;;;;;4975748;28;20703;-79
2022/09/20 13:50:29;;;;;;;3.07;1.80;;;;;;;;;;4973925;28;20251;-79
2022/09/20 13:52:56;;;;;;;3.20;1.20;;;;;;;;;;4974270;28;20190;-79
2022/09/20 13:55:33;;;;;;;2.23;1.10;;;;;;;;;;4974418;28;20255;-79
2022/09/20 13:58:06;;;;;;;2.10;1.10;;;;;;;;;;4973796;28;20180;-79
2022/09/20 14:00:33;;;;;;;4.40;1.30;;;;;;;;;;4973699;28;20215;-78
2022/09/20 14:02:59;;;;;;;1.20;1.00;;;;;;;;;;4975186;28;20686;-79
2022/09/20 14:05:28;;;;;;;1.47;0.80;;;;;;;;;;4973808;28;20203;-79
2022/09/20 14:07:56;;;;;;;1.97;1.00;;;;;;;;;;4975116;28;20204;-79
2022/09/20 14:10:30;;;;;;;1.27;1.00;;;;;;;;;;4973731;28;20184;-79
2022/09/20 14:12:57;;;;;;;1.57;0.60;;;;;;;;;;4975220;28;20172;-79
2022/09/20 14:15:23;;;;;;;1.20;0.90;;;;;;;;;;4973152;28;20267;-79
2022/09/20 14:17:52;;;;;;;2.27;1.00;;;;;;;;;;4973333;28;20271;-79
2022/09/20 14:20:18;;;;;;;3.80;1.00;;;;;;;;;;4973331;28;20302;-80
2022/09/20 14:22:44;;;;;;;1.93;0.93;;;;;;;;;;4973587;28;20682;-79
2022/09/20 14:25:13;;;;;;;1.57;1.00;;;;;;;;;;4973572;28;20204;-79
2022/09/20 14:27:39;;;;;;;1.63;0.80;;;;;;;;;;4973381;28;20180;-79
2022/09/20 14:30:06;;;;;;;0.77;0.77;;;;;;;;;;4973725;28;20184;-79
2022/09/20 14:32:38;;;;;;;1.00;0.90;;;;;;;;;;4973554;28;20191;-79
2022/09/20 14:35:13;;;;;;;0.90;0.80;;;;;;;;;;4973770;28;20204;-79
2022/09/20 14:37:44;;;;;;;2.70;1.00;;;;;;;;;;4979601;28;20187;-79
2022/09/20 14:40:17;;;;;;;0.97;0.80;;;;;;;;;;4989507;28;20227;-79
2022/09/20 14:42:45;;;;;;;1.70;0.80;;;;;;;;;;4994169;28;20179;-79
2022/09/20 14:45:30;;;;;;;1.73;0.93;;;;;;;;;;4992687;28;20203;-79
2022/09/20 14:48:02;;;;;;;1.60;0.90;;;;;;;;;;4992464;28;20202;-79
2022/09/20 14:50:28;;;;;;;3.63;0.80;;;;;;;;;;4976389;28;20202;-79
2022/09/20 14:53:06;;;;;;;1.27;0.90;;;;;;;;;;4993922;28;20175;-79
2022/09/20 14:55:33;;;;;;;1.97;0.90;;;;;;;;;;4992217;28;20226;-79
2022/09/20 14:58:00;;;;;;;0.70;0.63;;;;;;;;;;4992464;28;20271;-79
2022/09/20 15:00:28;;;;;;;1.90;1.00;;;;;;;;;;4972424;28;20240;-80
2022/09/20 15:02:54;;;;;;;2.13;0.80;;;;;;;;;;5005061;28;20180;-80
2022/09/20 15:05:20;;;;;;;1.53;0.90;;;;;;;;;;4992416;28;20549;-80
2022/09/20 15:07:47;;;;;;;1.70;0.90;;;;;;;;;;4992795;28;20180;-80
2022/09/20 15:10:14;;;;;;;2.30;0.83;;;;;;;;;;4992309;28;20662;-79
2022/09/20 15:12:41;;;;;;;1.37;0.80;;;;;;;;;;4991331;28;20221;-80
2022/09/20 15:15:13;;;;;;;2.37;1.10;;;;;;;;;;4982302;28;20233;-80
2022/09/20 15:17:40;;;;;;;2.40;0.80;;;;;;;;;;4994604;28;20275;-80
2022/09/20 15:20:06;;;;;;;1.83;1.10;;;;;;;;;;4981384;28;20232;-79
2022/09/20 15:22:32;;;;;;;1.13;0.70;;;;;;;;;;4970065;28;20229;-80
2022/09/20 15:24:58;;;;;;;2.60;0.80;;;;;;;;;;4961219;28;20306;-80
2022/09/20 15:27:24;;;;;;;1.10;0.63;;;;;;;;;;4990227;28;20184;-80
2022/09/20 15:29:50;;;;;;;2.17;0.80;;;;;;;;;;4993789;28;20188;-80
2022/09/20 15:32:16;;;;;;;1.37;0.73;;;;;;;;;;4977519;28;20184;-80